Cedar Ravine, California
Current Conditions -  °F | °C
As of 9:15 PM on Monday 20 Oct 2014 (Local Time) from KPVF Reporting Station
Overcast Overcast  
Wind Chill: 50°   Ceiling: 5500
Heat Index: 50°   Visibility: 10mi
Dew Point: 50°   Wind: 7mph
Humidity: 100%   Direction: 210°SSW
Pressure: 30.05"   Gusts: NA
Location:  38.7308°N, 120.774°W
Report Text: KPVF 210415Z AUTO 21006KT 10SM BKN055 OVC070 10/10 A3005 RMK AO1
Loading
Personal Weather Stations






























Interactive Weather Map
Tropical Storm Tracking
New forecast layout! Learn more

10-Day Weather Forecast

Advertisements
Track Severe Weather on mobile